createdAt,value
2023-01-18T00:02:32.270Z,72.35
2023-01-18T00:05:15.626Z,72.09
2023-01-18T00:08:05.398Z,71.66
2023-01-18T00:10:47.984Z,72.60
2023-01-18T00:13:36.313Z,72.13
2023-01-18T00:16:21.030Z,72.15
2023-01-18T00:19:14.369Z,70.30
2023-01-18T00:22:02.704Z,70.80
2023-01-18T00:24:44.334Z,70.86
2023-01-18T00:27:26.630Z,70.60
2023-01-18T00:30:15.347Z,69.47
2023-01-18T00:32:59.912Z,67.51
2023-01-18T00:35:49.390Z,62.79
2023-01-18T00:38:32.253Z,60.22
2023-01-18T00:41:21.323Z,58.51
2023-01-18T00:44:03.598Z,56.11
2023-01-18T00:46:52.279Z,57.56
2023-01-18T00:49:47.304Z,55.92
2023-01-18T00:52:36.218Z,56.48
2023-01-18T00:55:18.754Z,56.26
2023-01-18T00:58:07.342Z,55.59
2023-01-18T01:00:49.697Z,55.12
2023-01-18T01:03:58.263Z,55.26
2023-01-18T01:06:46.140Z,56.53
2023-01-18T01:09:38.330Z,55.90
2023-01-18T01:12:39.047Z,57.71
2023-01-18T01:15:46.314Z,56.80
2023-01-18T01:18:53.376Z,57.12
2023-01-18T01:22:00.352Z,57.66
2023-01-18T01:25:02.073Z,57.02
2023-01-18T01:27:51.309Z,57.66
2023-01-18T01:30:33.621Z,58.47
2023-01-18T01:33:22.542Z,58.92
2023-01-18T01:36:12.628Z,58.96
2023-01-18T01:39:01.464Z,59.01
2023-01-18T01:41:43.596Z,58.98
2023-01-18T01:44:42.333Z,59.00
2023-01-18T01:47:35.654Z,59.82
2023-01-18T01:50:46.264Z,59.91
2023-01-18T01:53:35.262Z,60.35
2023-01-18T01:56:18.642Z,60.03
2023-01-18T01:59:09.276Z,60.26
2023-01-18T02:01:53.841Z,60.15
2023-01-18T02:04:43.369Z,60.29
2023-01-18T02:07:34.299Z,60.25
2023-01-18T02:10:17.422Z,60.08
2023-01-18T02:13:07.255Z,60.65
2023-01-18T02:16:07.391Z,60.55
2023-01-18T02:19:28.854Z,60.64
2023-01-18T02:22:55.597Z,61.73
2023-01-18T02:26:01.668Z,61.08
2023-01-18T02:28:59.261Z,59.12
2023-01-18T02:32:00.612Z,59.45
2023-01-18T02:34:52.234Z,59.07
2023-01-18T02:37:45.783Z,58.80
2023-01-18T02:41:06.339Z,58.73
2023-01-18T02:44:16.394Z,59.63
2023-01-18T02:47:22.277Z,58.10
2023-01-18T02:50:12.199Z,58.24
2023-01-18T02:52:55.443Z,59.90
2023-01-18T02:56:01.358Z,59.45
2023-01-18T02:58:59.372Z,59.08
2023-01-18T03:02:00.299Z,59.76
2023-01-18T03:05:02.302Z,59.35
2023-01-18T03:07:59.379Z,58.33
2023-01-18T03:10:47.964Z,58.12
2023-01-18T03:13:52.393Z,58.55
2023-01-18T03:17:01.721Z,57.52
2023-01-18T03:20:14.306Z,59.16
2023-01-18T03:23:28.817Z,59.98
2023-01-18T03:26:28.218Z,58.96
2023-01-18T03:29:37.329Z,56.18
2023-01-18T03:32:45.092Z,54.42
2023-01-18T03:35:34.320Z,51.85
2023-01-18T03:38:24.684Z,47.69
2023-01-18T03:41:09.249Z,47.23
2023-01-18T03:44:02.951Z,46.21
2023-01-18T03:46:47.176Z,43.13
2023-01-18T03:49:42.241Z,41.58
2023-01-18T03:52:34.313Z,42.80
2023-01-18T03:55:31.267Z,42.43
2023-01-18T03:58:25.265Z,42.92
2023-01-18T04:01:07.738Z,43.24
2023-01-18T04:03:56.331Z,41.62
2023-01-18T04:06:40.589Z,39.79
2023-01-18T04:09:29.259Z,41.88
2023-01-18T04:12:18.361Z,40.86
2023-01-18T04:15:06.561Z,41.62
2023-01-18T04:17:48.367Z,40.88
2023-01-18T04:20:36.608Z,42.78
2023-01-18T04:23:19.280Z,40.88
2023-01-18T04:26:01.556Z,41.81
2023-01-18T04:28:50.250Z,40.96
2023-01-18T04:31:39.395Z,39.84
2023-01-18T04:34:30.251Z,42.45
2023-01-18T04:37:18.569Z,40.11
2023-01-18T04:40:00.237Z,39.98
2023-01-18T04:42:48.596Z,42.26
2023-01-18T04:45:31.376Z,43.34
2023-01-18T04:48:20.105Z,43.73
2023-01-18T04:51:09.364Z,41.63
2023-01-18T04:53:52.692Z,41.67
2023-01-18T04:56:41.384Z,43.30
2023-01-18T04:59:24.697Z,42.01
2023-01-18T05:02:13.315Z,41.15
2023-01-18T05:04:55.757Z,40.80
2023-01-18T05:07:44.374Z,40.68
2023-01-18T05:10:26.558Z,39.14
2023-01-18T05:13:15.323Z,36.68
2023-01-18T05:15:57.630Z,38.08
2023-01-18T05:18:46.301Z,37.99
2023-01-18T05:21:29.634Z,38.67
2023-01-18T05:24:18.257Z,37.27
2023-01-18T05:27:00.578Z,39.88
2023-01-18T05:29:49.248Z,36.50
2023-01-18T05:32:31.565Z,35.97
2023-01-18T05:35:20.154Z,37.37
2023-01-18T05:38:02.609Z,37.08
2023-01-18T05:40:53.375Z,38.15
2023-01-18T05:43:36.696Z,35.06
2023-01-18T05:46:25.772Z,36.49
2023-01-18T05:49:07.676Z,38.94
2023-01-18T05:52:03.341Z,39.68
2023-01-18T05:54:51.577Z,37.42
2023-01-18T05:57:34.290Z,36.77
2023-01-18T06:00:16.997Z,35.05
2023-01-18T06:03:10.151Z,34.66
2023-01-18T06:06:00.295Z,37.03
2023-01-18T06:08:43.216Z,35.17
2023-01-18T06:11:38.343Z,38.18
2023-01-18T06:14:20.470Z,35.84
2023-01-18T06:17:09.250Z,35.10
2023-01-18T06:19:51.468Z,35.45
2023-01-18T06:22:40.331Z,36.57
2023-01-18T06:25:28.660Z,34.78
2023-01-18T06:28:12.302Z,33.17
2023-01-18T06:31:05.898Z,34.33
2023-01-18T06:33:47.374Z,35.52
2023-01-18T06:36:35.613Z,32.53
2023-01-18T06:39:17.307Z,34.58
2023-01-18T06:42:05.622Z,34.05
2023-01-18T06:44:48.307Z,33.16
2023-01-18T06:47:36.586Z,31.99
2023-01-18T06:50:32.245Z,32.63
2023-01-18T06:53:21.258Z,32.64
2023-01-18T06:56:11.359Z,32.33
2023-01-18T06:59:03.363Z,34.97
2023-01-18T07:01:45.732Z,34.41
2023-01-18T07:04:35.663Z,31.92
2023-01-18T07:07:24.245Z,34.01
2023-01-18T07:10:16.115Z,32.89
2023-01-18T07:12:58.844Z,32.70
2023-01-18T07:15:48.383Z,31.98
2023-01-18T07:18:31.601Z,29.56
2023-01-18T07:21:21.380Z,27.72
2023-01-18T07:24:04.600Z,29.61
2023-01-18T07:26:53.298Z,29.25
2023-01-18T07:29:35.613Z,29.41
2023-01-18T07:32:24.251Z,29.14
2023-01-18T07:35:06.564Z,31.54
2023-01-18T07:38:00.337Z,30.25
2023-01-18T07:40:42.550Z,32.33
2023-01-18T07:43:32.409Z,31.97
2023-01-18T07:46:21.521Z,31.26
2023-01-18T07:49:13.277Z,28.54
2023-01-18T07:52:08.613Z,31.75
2023-01-18T07:54:50.474Z,31.40
2023-01-18T07:57:39.308Z,28.13
2023-01-18T08:00:28.608Z,29.50
2023-01-18T08:03:10.447Z,25.43
2023-01-18T08:05:52.735Z,29.56
2023-01-18T08:08:42.402Z,29.24
2023-01-18T08:11:24.954Z,29.40
2023-01-18T08:14:14.256Z,31.30
2023-01-18T08:17:02.594Z,27.86
2023-01-18T08:19:45.249Z,28.08
2023-01-18T08:22:27.544Z,29.10
2023-01-18T08:25:16.420Z,29.93
2023-01-18T08:28:06.528Z,29.06
2023-01-18T08:30:52.353Z,29.48
2023-01-18T08:33:39.464Z,31.56
2023-01-18T08:36:31.314Z,30.71
2023-01-18T08:39:14.617Z,29.16
2023-01-18T08:42:03.222Z,27.43
2023-01-18T08:44:45.489Z,27.31
2023-01-18T08:47:34.292Z,27.29
2023-01-18T08:50:29.098Z,27.35
2023-01-18T08:53:19.585Z,26.75
2023-01-18T08:56:01.600Z,25.92
2023-01-18T08:58:50.371Z,25.60
2023-01-18T09:01:32.645Z,27.70
2023-01-18T09:04:21.276Z,28.53
2023-01-18T09:07:03.623Z,26.51
2023-01-18T09:09:53.277Z,28.19
2023-01-18T09:12:35.787Z,26.95
2023-01-18T09:15:26.361Z,27.97
2023-01-18T09:18:09.316Z,25.99
2023-01-18T09:20:59.350Z,29.08
2023-01-18T09:23:41.567Z,26.90
2023-01-18T09:26:30.282Z,26.70
2023-01-18T09:29:12.564Z,26.90
2023-01-18T09:32:03.359Z,28.62
2023-01-18T09:34:47.345Z,27.34
2023-01-18T09:37:36.377Z,27.43
2023-01-18T09:40:30.525Z,28.04
2023-01-18T09:43:32.355Z,28.34
2023-01-18T09:46:29.221Z,29.06
2023-01-18T09:49:29.248Z,28.65
2023-01-18T09:52:40.560Z,28.60
2023-01-18T09:55:25.293Z,26.53
2023-01-18T09:58:40.475Z,28.44
2023-01-18T10:01:34.401Z,29.99
2023-01-18T10:04:33.182Z,32.07
2023-01-18T10:07:28.338Z,30.97
2023-01-18T10:10:24.714Z,29.59
2023-01-18T10:13:32.296Z,31.60
2023-01-18T10:16:22.551Z,31.02
2023-01-18T10:19:09.498Z,32.00
2023-01-18T10:22:10.631Z,31.25
2023-01-18T10:25:22.285Z,31.10
2023-01-18T10:29:00.065Z,31.67
2023-01-18T10:32:00.168Z,33.27
2023-01-18T10:34:57.346Z,32.56
2023-01-18T10:37:50.117Z,32.72
2023-01-18T10:40:39.275Z,34.23
2023-01-18T10:43:22.756Z,32.31
2023-01-18T10:46:18.411Z,31.95
2023-01-18T10:49:03.721Z,33.00
2023-01-18T10:51:54.477Z,32.14
2023-01-18T10:54:36.600Z,29.39
2023-01-18T10:57:33.599Z,31.09
2023-01-18T11:00:31.748Z,29.39
2023-01-18T11:03:23.297Z,30.41
2023-01-18T11:06:24.149Z,29.51
2023-01-18T11:09:13.342Z,31.78
2023-01-18T11:12:13.948Z,31.28
2023-01-18T11:15:03.296Z,32.20
2023-01-18T11:17:47.271Z,32.21
2023-01-18T11:20:58.255Z,33.09
2023-01-18T11:23:49.281Z,32.72
2023-01-18T11:26:37.610Z,34.92
2023-01-18T11:29:23.195Z,33.24
2023-01-18T11:32:15.757Z,34.24
2023-01-18T11:35:01.317Z,34.52
2023-01-18T11:37:51.008Z,35.66
2023-01-18T11:40:36.323Z,34.82
2023-01-18T11:43:34.489Z,37.22
2023-01-18T11:47:11.218Z,39.24
2023-01-18T11:50:28.467Z,44.62
2023-01-18T11:53:29.576Z,40.20
2023-01-18T11:56:20.332Z,42.72
2023-01-18T11:59:11.601Z,42.13
2023-01-18T12:02:32.344Z,43.24
2023-01-18T12:05:32.705Z,42.45
2023-01-18T12:08:39.250Z,42.18
2023-01-18T12:11:48.338Z,42.48
2023-01-18T12:14:59.541Z,41.99
2023-01-18T12:18:35.297Z,42.44
2023-01-18T12:21:22.133Z,43.63
2023-01-18T12:24:38.332Z,43.55
2023-01-18T12:27:32.523Z,43.55
2023-01-18T12:30:27.318Z,44.67
2023-01-18T12:33:38.041Z,45.11
2023-01-18T12:37:01.179Z,43.27
2023-01-18T12:40:12.260Z,44.44
2023-01-18T12:43:13.469Z,45.11
2023-01-18T12:46:05.201Z,44.28
2023-01-18T12:49:29.335Z,45.00
2023-01-18T12:52:29.167Z,45.86
2023-01-18T12:55:26.170Z,46.32
2023-01-18T12:58:10.664Z,46.38
2023-01-18T13:01:07.294Z,47.59
2023-01-18T13:03:55.745Z,49.18
2023-01-18T13:06:47.160Z,48.44
2023-01-18T13:09:36.907Z,47.03
2023-01-18T13:12:26.311Z,48.65
2023-01-18T13:15:23.917Z,48.56
2023-01-18T13:18:30.329Z,48.40
2023-01-18T13:21:19.188Z,48.52
2023-01-18T13:24:26.242Z,48.28
2023-01-18T13:27:17.651Z,48.84
2023-01-18T13:30:17.268Z,48.55
2023-01-18T13:33:00.945Z,48.28
2023-01-18T13:36:02.305Z,48.34
2023-01-18T13:38:55.558Z,47.54
2023-01-18T13:41:44.176Z,48.80
2023-01-18T13:44:54.248Z,48.45
2023-01-18T13:47:48.235Z,49.18
2023-01-18T13:50:43.308Z,48.36
2023-01-18T13:53:32.599Z,49.56
2023-01-18T13:56:16.206Z,49.82
2023-01-18T13:59:23.156Z,49.75
2023-01-18T14:02:21.535Z,49.23
2023-01-18T14:05:21.044Z,50.19
2023-01-18T14:08:10.275Z,48.59
2023-01-18T14:11:01.227Z,48.73
2023-01-18T14:14:13.251Z,49.87
2023-01-18T14:17:08.169Z,50.99
2023-01-18T14:20:07.234Z,48.76
2023-01-18T14:23:11.984Z,49.05
2023-01-18T14:26:21.223Z,50.11
2023-01-18T14:29:13.201Z,50.78
2023-01-18T14:32:08.209Z,50.79
2023-01-18T14:35:11.594Z,50.27
2023-01-18T14:37:54.236Z,51.74
2023-01-18T14:40:43.525Z,51.47
2023-01-18T14:43:40.265Z,50.46
2023-01-18T14:46:28.215Z,50.79
2023-01-18T14:49:17.087Z,50.95
2023-01-18T14:52:17.183Z,50.81
2023-01-18T14:55:06.691Z,51.11
2023-01-18T14:57:48.149Z,52.11
2023-01-18T15:00:37.537Z,51.79
2023-01-18T15:03:32.071Z,52.23
2023-01-18T15:06:27.558Z,51.90
2023-01-18T15:09:13.229Z,51.05
2023-01-18T15:11:58.945Z,52.59
2023-01-18T15:14:51.239Z,52.38
2023-01-18T15:17:40.218Z,50.21
2023-01-18T15:20:23.679Z,53.10
2023-01-18T15:23:13.271Z,51.20
2023-01-18T15:25:59.939Z,52.23
2023-01-18T15:28:49.267Z,52.91
2023-01-18T15:31:31.736Z,52.31
2023-01-18T15:34:23.225Z,51.03
2023-01-18T15:37:08.948Z,51.46
2023-01-18T15:40:21.246Z,51.31
2023-01-18T15:43:20.266Z,51.43
2023-01-18T15:46:03.825Z,52.08
2023-01-18T15:49:13.213Z,51.67
2023-01-18T15:52:10.191Z,52.64
2023-01-18T15:54:58.514Z,50.64
2023-01-18T15:57:44.245Z,51.67
2023-01-18T16:00:29.861Z,51.66
2023-01-18T16:03:20.174Z,51.86
2023-01-18T16:06:19.883Z,52.86
2023-01-18T16:09:06.216Z,52.02
2023-01-18T16:12:02.260Z,52.86
2023-01-18T16:14:47.318Z,53.26
2023-01-18T16:17:38.283Z,53.41
2023-01-18T16:20:24.554Z,52.35
2023-01-18T16:23:27.213Z,52.96
2023-01-18T16:26:09.518Z,54.31
2023-01-18T16:28:58.227Z,52.82
2023-01-18T16:31:52.223Z,51.67
2023-01-18T16:34:34.499Z,53.15
2023-01-18T16:37:25.234Z,54.62
2023-01-18T16:40:07.443Z,53.31
2023-01-18T16:43:12.159Z,52.98
2023-01-18T16:46:04.354Z,56.16
2023-01-18T16:48:46.358Z,54.38
2023-01-18T16:51:36.245Z,54.70
2023-01-18T16:54:18.339Z,54.87
2023-01-18T16:57:07.250Z,55.25
2023-01-18T16:59:49.708Z,55.90
2023-01-18T17:02:38.208Z,57.32
2023-01-18T17:05:21.797Z,55.68
2023-01-18T17:08:10.224Z,56.87
2023-01-18T17:10:59.467Z,56.74
2023-01-18T17:13:41.217Z,56.55
2023-01-18T17:16:36.306Z,56.72
2023-01-18T17:19:27.439Z,55.75
2023-01-18T17:22:09.229Z,54.89
2023-01-18T17:24:58.711Z,54.28
2023-01-18T17:27:40.248Z,53.68
2023-01-18T17:30:31.269Z,53.44
2023-01-18T17:33:13.626Z,54.10
2023-01-18T17:38:50.653Z,51.87
2023-01-18T17:41:40.213Z,51.29
2023-01-18T17:44:36.849Z,52.30
2023-01-18T17:47:19.473Z,51.61
2023-01-18T17:50:08.223Z,52.75
2023-01-18T17:53:03.078Z,52.57
2023-01-18T17:55:52.264Z,52.10
2023-01-18T17:58:34.594Z,52.68
2023-01-18T18:01:25.404Z,53.14
2023-01-18T18:04:07.563Z,52.35
2023-01-18T18:07:00.187Z,53.44
2023-01-18T18:09:43.890Z,55.33
2023-01-18T18:12:33.165Z,56.17
2023-01-18T18:15:15.756Z,55.10
2023-01-18T18:18:05.564Z,53.51
2023-01-18T18:20:49.574Z,54.18
2023-01-18T18:23:39.214Z,53.33
2023-01-18T18:26:24.748Z,53.52
2023-01-18T18:29:13.218Z,54.72
2023-01-18T18:32:02.258Z,56.22
2023-01-18T18:34:44.589Z,56.96
2023-01-18T18:37:34.263Z,55.35
2023-01-18T18:40:20.028Z,54.19
2023-01-18T18:43:09.494Z,55.57
2023-01-18T18:45:51.590Z,57.79
2023-01-18T18:48:40.221Z,57.47
2023-01-18T18:51:23.698Z,58.44
2023-01-18T18:54:15.203Z,56.12
2023-01-18T18:56:57.417Z,56.12
2023-01-18T18:59:46.169Z,55.24
2023-01-18T19:02:28.513Z,55.96
2023-01-18T19:05:21.225Z,56.81
2023-01-18T19:08:03.686Z,56.36
2023-01-18T19:10:52.195Z,58.24
2023-01-18T19:13:34.746Z,58.59
2023-01-18T19:16:23.233Z,57.42
2023-01-18T19:19:12.247Z,56.57
2023-01-18T19:22:03.145Z,57.36
2023-01-18T19:24:52.156Z,57.71
2023-01-18T19:27:41.211Z,57.78
2023-01-18T19:30:27.230Z,58.08
2023-01-18T19:33:16.680Z,57.56
2023-01-18T19:36:00.175Z,57.95
2023-01-18T19:38:57.756Z,56.99
2023-01-18T19:41:41.196Z,55.75
2023-01-18T19:44:29.509Z,55.32
2023-01-18T19:47:11.194Z,54.75
2023-01-18T19:49:53.646Z,52.10
2023-01-18T19:52:42.215Z,51.65
2023-01-18T19:55:30.428Z,53.43
2023-01-18T19:58:14.165Z,53.05
2023-01-18T20:01:02.735Z,54.03
2023-01-18T20:03:45.172Z,52.54
2023-01-18T20:06:27.479Z,51.03
2023-01-18T20:09:19.799Z,49.45
2023-01-18T20:12:09.527Z,47.41
2023-01-18T20:14:53.220Z,48.16
2023-01-18T20:17:43.025Z,46.09
2023-01-18T20:20:32.484Z,44.57
2023-01-18T20:23:22.156Z,44.05
2023-01-18T20:26:04.493Z,42.68
2023-01-18T20:28:53.172Z,41.14
2023-01-18T20:31:35.594Z,41.52
2023-01-18T20:34:24.191Z,41.19
2023-01-18T20:37:06.661Z,40.30
2023-01-18T20:39:55.154Z,41.07
2023-01-18T20:42:44.175Z,40.27
2023-01-18T20:45:33.502Z,40.68
2023-01-18T20:48:15.322Z,40.08
2023-01-18T20:51:06.508Z,39.70
2023-01-18T20:53:55.275Z,40.73
2023-01-18T20:56:37.399Z,39.25
2023-01-18T20:59:27.239Z,40.85
2023-01-18T21:02:09.585Z,40.81
2023-01-18T21:04:58.141Z,40.09
2023-01-18T21:07:41.761Z,41.20
2023-01-18T21:10:31.265Z,41.01
2023-01-18T21:13:18.633Z,41.06
2023-01-18T21:16:08.526Z,40.35
2023-01-18T21:18:53.734Z,42.52
2023-01-18T21:21:42.157Z,41.01
2023-01-18T21:24:31.331Z,41.10
2023-01-18T21:27:13.708Z,41.51
2023-01-18T21:30:02.226Z,43.16
2023-01-18T21:32:44.612Z,43.10
2023-01-18T21:35:33.153Z,44.21
2023-01-18T21:38:24.172Z,45.02
2023-01-18T21:41:27.405Z,46.95
2023-01-18T21:44:35.708Z,45.33
2023-01-18T21:47:18.171Z,47.30
2023-01-18T21:50:24.943Z,46.35
2023-01-18T21:53:42.060Z,46.35
2023-01-18T21:56:31.180Z,46.09
2023-01-18T21:59:13.669Z,46.27
2023-01-18T22:02:02.251Z,49.33
2023-01-18T22:05:04.641Z,48.37
2023-01-18T22:07:53.007Z,47.22
2023-01-18T22:10:35.479Z,48.78
2023-01-18T22:13:24.145Z,48.58
2023-01-18T22:16:11.458Z,47.21
2023-01-18T22:19:00.101Z,47.76
2023-01-18T22:21:42.482Z,48.95
2023-01-18T22:24:31.211Z,49.47
2023-01-18T22:27:14.549Z,48.60
2023-01-18T22:30:03.238Z,48.00
2023-01-18T22:32:45.527Z,48.77
2023-01-18T22:35:34.131Z,49.91
2023-01-18T22:38:16.430Z,50.33
2023-01-18T22:41:16.132Z,50.70
2023-01-18T22:43:58.554Z,50.22
2023-01-18T22:46:47.058Z,51.18
2023-01-18T22:49:36.164Z,49.59
2023-01-18T22:52:30.965Z,50.31
2023-01-18T22:55:20.046Z,50.13
2023-01-18T22:58:02.776Z,50.47
2023-01-18T23:00:56.179Z,51.12
2023-01-18T23:03:46.142Z,50.85
2023-01-18T23:06:36.090Z,52.64
2023-01-18T23:09:26.137Z,52.63
2023-01-18T23:12:08.407Z,52.44
2023-01-18T23:15:15.074Z,54.84
2023-01-18T23:17:57.589Z,53.91
2023-01-18T23:20:47.106Z,54.25
2023-01-18T23:23:29.311Z,53.04
2023-01-18T23:26:18.132Z,53.32
2023-01-18T23:29:07.044Z,54.54
2023-01-18T23:31:57.523Z,54.75
2023-01-18T23:34:41.841Z,54.33
2023-01-18T23:37:31.066Z,55.23
2023-01-18T23:40:39.008Z,54.06
2023-01-18T23:43:39.872Z,54.53
2023-01-18T23:46:47.121Z,55.43
2023-01-18T23:49:47.869Z,53.38
2023-01-18T23:52:55.011Z,56.56
2023-01-18T23:55:37.561Z,54.32
2023-01-18T23:58:26.178Z,56.11
